sensor_id;sensor_type;location;lat;lon;timestamp;P1;durP1;ratioP1;P2;durP2;ratioP2
74715;SDS011;63234;37.558;127.058;2023-09-12T00:02:18;13.32;;;5.47;;
74715;SDS011;63234;37.558;127.058;2023-09-12T00:04:44;7.57;;;4.90;;
74715;SDS011;63234;37.558;127.058;2023-09-12T00:07:10;9.57;;;4.72;;
74715;SDS011;63234;37.558;127.058;2023-09-12T00:09:36;9.05;;;4.68;;
74715;SDS011;63234;37.558;127.058;2023-09-12T00:12:02;8.98;;;4.78;;
74715;SDS011;63234;37.558;127.058;2023-09-12T00:14:28;6.28;;;4.55;;
74715;SDS011;63234;37.558;127.058;2023-09-12T00:16:54;8.65;;;5.53;;
74715;SDS011;63234;37.558;127.058;2023-09-12T00:19:20;7.57;;;5.25;;
74715;SDS011;63234;37.558;127.058;2023-09-12T00:21:46;7.97;;;4.65;;
74715;SDS011;63234;37.558;127.058;2023-09-12T00:24:12;9.05;;;5.65;;
74715;SDS011;63234;37.558;127.058;2023-09-12T00:26:38;7.32;;;5.03;;
74715;SDS011;63234;37.558;127.058;2023-09-12T00:29:04;7.30;;;5.07;;
74715;SDS011;63234;37.558;127.058;2023-09-12T00:31:30;7.78;;;4.65;;
74715;SDS011;63234;37.558;127.058;2023-09-12T00:33:56;12.50;;;5.38;;
74715;SDS011;63234;37.558;127.058;2023-09-12T00:36:22;9.90;;;5.15;;
74715;SDS011;63234;37.558;127.058;2023-09-12T00:38:48;11.13;;;5.57;;
74715;SDS011;63234;37.558;127.058;2023-09-12T00:41:14;8.63;;;5.22;;
74715;SDS011;63234;37.558;127.058;2023-09-12T00:43:40;7.93;;;5.00;;
74715;SDS011;63234;37.558;127.058;2023-09-12T00:46:06;8.98;;;5.28;;
74715;SDS011;63234;37.558;127.058;2023-09-12T00:48:32;8.30;;;5.10;;
74715;SDS011;63234;37.558;127.058;2023-09-12T00:50:59;10.07;;;6.43;;
74715;SDS011;63234;37.558;127.058;2023-09-12T00:53:26;9.80;;;5.63;;
74715;SDS011;63234;37.558;127.058;2023-09-12T00:55:54;9.93;;;6.00;;
74715;SDS011;63234;37.558;127.058;2023-09-12T00:58:23;9.73;;;5.90;;
74715;SDS011;63234;37.558;127.058;2023-09-12T01:00:51;10.45;;;5.93;;
74715;SDS011;63234;37.558;127.058;2023-09-12T01:03:17;9.50;;;6.13;;
74715;SDS011;63234;37.558;127.058;2023-09-12T01:05:43;13.07;;;6.50;;
74715;SDS011;63234;37.558;127.058;2023-09-12T01:08:10;12.93;;;6.70;;
74715;SDS011;63234;37.558;127.058;2023-09-12T01:10:36;10.13;;;5.78;;
74715;SDS011;63234;37.558;127.058;2023-09-12T01:13:02;13.45;;;6.53;;
74715;SDS011;63234;37.558;127.058;2023-09-12T01:15:28;9.98;;;6.60;;
74715;SDS011;63234;37.558;127.058;2023-09-12T01:17:55;15.88;;;7.00;;
74715;SDS011;63234;37.558;127.058;2023-09-12T01:20:29;16.80;;;7.15;;
74715;SDS011;63234;37.558;127.058;2023-09-12T01:28:25;18.95;;;8.10;;
74715;SDS011;63234;37.558;127.058;2023-09-12T01:31:00;17.80;;;9.00;;
74715;SDS011;63234;37.558;127.058;2023-09-12T01:33:28;11.70;;;7.68;;
74715;SDS011;63234;37.558;127.058;2023-09-12T01:35:55;12.40;;;7.80;;
74715;SDS011;63234;37.558;127.058;2023-09-12T01:38:21;16.25;;;9.20;;
74715;SDS011;63234;37.558;127.058;2023-09-12T01:40:48;14.35;;;7.65;;
74715;SDS011;63234;37.558;127.058;2023-09-12T01:43:16;11.95;;;7.53;;
74715;SDS011;63234;37.558;127.058;2023-09-12T01:45:45;15.93;;;7.50;;
74715;SDS011;63234;37.558;127.058;2023-09-12T01:48:13;9.60;;;6.63;;
74715;SDS011;63234;37.558;127.058;2023-09-12T01:50:44;11.98;;;7.03;;
74715;SDS011;63234;37.558;127.058;2023-09-12T01:53:11;10.18;;;6.57;;
74715;SDS011;63234;37.558;127.058;2023-09-12T01:55:40;15.43;;;7.18;;
74715;SDS011;63234;37.558;127.058;2023-09-12T01:58:11;11.00;;;6.50;;
74715;SDS011;63234;37.558;127.058;2023-09-12T02:00:39;10.05;;;6.80;;
74715;SDS011;63234;37.558;127.058;2023-09-12T02:03:05;8.05;;;5.78;;
74715;SDS011;63234;37.558;127.058;2023-09-12T02:05:31;9.63;;;5.95;;
74715;SDS011;63234;37.558;127.058;2023-09-12T02:07:58;10.35;;;6.90;;
74715;SDS011;63234;37.558;127.058;2023-09-12T02:10:27;10.82;;;6.72;;
74715;SDS011;63234;37.558;127.058;2023-09-12T02:12:53;11.35;;;6.43;;
74715;SDS011;63234;37.558;127.058;2023-09-12T02:15:19;9.13;;;5.30;;
74715;SDS011;63234;37.558;127.058;2023-09-12T02:17:45;9.40;;;5.80;;
74715;SDS011;63234;37.558;127.058;2023-09-12T02:20:11;9.93;;;6.80;;
74715;SDS011;63234;37.558;127.058;2023-09-12T02:22:37;11.57;;;6.78;;
74715;SDS011;63234;37.558;127.058;2023-09-12T02:25:04;10.40;;;6.57;;
74715;SDS011;63234;37.558;127.058;2023-09-12T02:27:30;10.23;;;6.53;;
74715;SDS011;63234;37.558;127.058;2023-09-12T02:29:56;11.75;;;6.93;;
74715;SDS011;63234;37.558;127.058;2023-09-12T02:32:22;10.57;;;6.40;;
74715;SDS011;63234;37.558;127.058;2023-09-12T02:34:48;9.98;;;6.28;;
74715;SDS011;63234;37.558;127.058;2023-09-12T02:37:14;11.15;;;6.53;;
74715;SDS011;63234;37.558;127.058;2023-09-12T02:39:41;11.88;;;6.55;;
74715;SDS011;63234;37.558;127.058;2023-09-12T02:42:07;10.82;;;6.10;;
74715;SDS011;63234;37.558;127.058;2023-09-12T02:44:33;11.65;;;5.97;;
74715;SDS011;63234;37.558;127.058;2023-09-12T02:46:59;9.10;;;5.85;;
74715;SDS011;63234;37.558;127.058;2023-09-12T02:49:25;10.18;;;6.00;;
74715;SDS011;63234;37.558;127.058;2023-09-12T02:51:51;8.95;;;5.43;;
74715;SDS011;63234;37.558;127.058;2023-09-12T02:54:17;10.52;;;5.53;;
74715;SDS011;63234;37.558;127.058;2023-09-12T02:56:43;8.43;;;6.35;;
74715;SDS011;63234;37.558;127.058;2023-09-12T02:59:09;10.68;;;5.80;;
74715;SDS011;63234;37.558;127.058;2023-09-12T03:01:35;8.63;;;6.07;;
74715;SDS011;63234;37.558;127.058;2023-09-12T03:04:01;7.82;;;5.53;;
74715;SDS011;63234;37.558;127.058;2023-09-12T03:06:28;12.68;;;6.25;;
74715;SDS011;63234;37.558;127.058;2023-09-12T03:08:55;9.43;;;5.80;;
74715;SDS011;63234;37.558;127.058;2023-09-12T03:11:21;8.68;;;6.45;;
74715;SDS011;63234;37.558;127.058;2023-09-12T03:13:47;9.02;;;5.50;;
74715;SDS011;63234;37.558;127.058;2023-09-12T03:16:14;9.43;;;5.00;;
74715;SDS011;63234;37.558;127.058;2023-09-12T03:18:40;8.23;;;5.72;;
74715;SDS011;63234;37.558;127.058;2023-09-12T03:21:06;9.35;;;5.63;;
74715;SDS011;63234;37.558;127.058;2023-09-12T03:23:33;7.13;;;5.13;;
74715;SDS011;63234;37.558;127.058;2023-09-12T03:26:02;8.18;;;5.57;;
74715;SDS011;63234;37.558;127.058;2023-09-12T03:28:29;9.68;;;5.50;;
74715;SDS011;63234;37.558;127.058;2023-09-12T03:31:16;13.15;;;6.07;;
74715;SDS011;63234;37.558;127.058;2023-09-12T03:33:42;10.05;;;5.18;;
74715;SDS011;63234;37.558;127.058;2023-09-12T03:36:13;9.18;;;5.43;;
74715;SDS011;63234;37.558;127.058;2023-09-12T03:38:39;9.00;;;5.35;;
74715;SDS011;63234;37.558;127.058;2023-09-12T03:41:05;11.05;;;5.55;;
74715;SDS011;63234;37.558;127.058;2023-09-12T03:43:32;12.93;;;5.80;;
74715;SDS011;63234;37.558;127.058;2023-09-12T03:45:59;8.10;;;5.38;;
74715;SDS011;63234;37.558;127.058;2023-09-12T03:48:25;9.30;;;5.53;;
74715;SDS011;63234;37.558;127.058;2023-09-12T03:50:51;8.82;;;5.35;;
74715;SDS011;63234;37.558;127.058;2023-09-12T03:53:17;6.68;;;5.20;;
74715;SDS011;63234;37.558;127.058;2023-09-12T03:55:43;8.65;;;5.70;;
74715;SDS011;63234;37.558;127.058;2023-09-12T03:58:09;8.13;;;5.47;;
74715;SDS011;63234;37.558;127.058;2023-09-12T04:00:35;12.23;;;6.20;;
74715;SDS011;63234;37.558;127.058;2023-09-12T04:03:01;10.27;;;5.72;;
74715;SDS011;63234;37.558;127.058;2023-09-12T04:05:27;7.90;;;5.05;;
74715;SDS011;63234;37.558;127.058;2023-09-12T04:07:53;9.25;;;6.57;;
74715;SDS011;63234;37.558;127.058;2023-09-12T04:10:19;10.68;;;5.00;;
74715;SDS011;63234;37.558;127.058;2023-09-12T04:12:46;10.18;;;4.90;;
74715;SDS011;63234;37.558;127.058;2023-09-12T04:15:12;9.50;;;5.65;;
74715;SDS011;63234;37.558;127.058;2023-09-12T04:17:38;11.63;;;5.65;;
74715;SDS011;63234;37.558;127.058;2023-09-12T04:20:04;8.63;;;5.50;;
74715;SDS011;63234;37.558;127.058;2023-09-12T04:22:30;9.80;;;5.70;;
74715;SDS011;63234;37.558;127.058;2023-09-12T04:24:56;8.50;;;5.43;;
74715;SDS011;63234;37.558;127.058;2023-09-12T04:27:22;8.88;;;5.28;;
74715;SDS011;63234;37.558;127.058;2023-09-12T04:29:48;9.32;;;5.68;;
74715;SDS011;63234;37.558;127.058;2023-09-12T04:32:14;8.02;;;4.90;;
74715;SDS011;63234;37.558;127.058;2023-09-12T04:34:42;7.03;;;5.07;;
74715;SDS011;63234;37.558;127.058;2023-09-12T04:37:08;9.35;;;5.88;;
74715;SDS011;63234;37.558;127.058;2023-09-12T04:39:34;9.82;;;5.55;;
74715;SDS011;63234;37.558;127.058;2023-09-12T04:42:00;13.43;;;5.60;;
74715;SDS011;63234;37.558;127.058;2023-09-12T04:44:28;7.07;;;4.95;;
74715;SDS011;63234;37.558;127.058;2023-09-12T04:46:54;9.40;;;5.40;;
74715;SDS011;63234;37.558;127.058;2023-09-12T04:49:20;8.05;;;5.43;;
74715;SDS011;63234;37.558;127.058;2023-09-12T04:51:46;11.80;;;5.55;;
74715;SDS011;63234;37.558;127.058;2023-09-12T04:54:12;8.50;;;5.38;;
74715;SDS011;63234;37.558;127.058;2023-09-12T04:56:38;8.68;;;5.53;;
74715;SDS011;63234;37.558;127.058;2023-09-12T04:59:04;8.20;;;5.05;;
74715;SDS011;63234;37.558;127.058;2023-09-12T05:01:32;9.25;;;5.20;;
74715;SDS011;63234;37.558;127.058;2023-09-12T05:03:58;10.60;;;5.60;;
74715;SDS011;63234;37.558;127.058;2023-09-12T05:06:24;10.48;;;5.55;;
74715;SDS011;63234;37.558;127.058;2023-09-12T05:08:50;7.93;;;5.50;;
74715;SDS011;63234;37.558;127.058;2023-09-12T05:11:15;8.93;;;5.68;;
74715;SDS011;63234;37.558;127.058;2023-09-12T05:13:41;9.35;;;5.05;;
74715;SDS011;63234;37.558;127.058;2023-09-12T05:16:07;10.75;;;5.32;;
74715;SDS011;63234;37.558;127.058;2023-09-12T05:18:33;6.97;;;4.97;;
74715;SDS011;63234;37.558;127.058;2023-09-12T05:20:59;8.80;;;5.10;;
74715;SDS011;63234;37.558;127.058;2023-09-12T05:23:25;12.43;;;5.40;;
74715;SDS011;63234;37.558;127.058;2023-09-12T05:25:51;9.80;;;6.18;;
74715;SDS011;63234;37.558;127.058;2023-09-12T05:28:16;7.53;;;5.13;;
74715;SDS011;63234;37.558;127.058;2023-09-12T05:30:42;11.45;;;5.47;;
74715;SDS011;63234;37.558;127.058;2023-09-12T05:33:08;8.00;;;4.88;;
74715;SDS011;63234;37.558;127.058;2023-09-12T05:35:34;8.07;;;5.22;;
74715;SDS011;63234;37.558;127.058;2023-09-12T05:38:02;9.23;;;5.93;;
74715;SDS011;63234;37.558;127.058;2023-09-12T05:40:28;9.23;;;5.53;;
74715;SDS011;63234;37.558;127.058;2023-09-12T05:42:53;9.80;;;5.55;;
74715;SDS011;63234;37.558;127.058;2023-09-12T05:45:19;15.07;;;5.32;;
74715;SDS011;63234;37.558;127.058;2023-09-12T05:47:45;12.57;;;5.50;;
74715;SDS011;63234;37.558;127.058;2023-09-12T05:50:11;7.57;;;4.95;;
74715;SDS011;63234;37.558;127.058;2023-09-12T05:52:37;12.07;;;5.45;;
74715;SDS011;63234;37.558;127.058;2023-09-12T05:55:03;8.20;;;5.35;;
74715;SDS011;63234;37.558;127.058;2023-09-12T05:57:31;12.95;;;5.43;;
74715;SDS011;63234;37.558;127.058;2023-09-12T06:00:00;10.43;;;5.22;;
74715;SDS011;63234;37.558;127.058;2023-09-12T06:02:27;12.07;;;5.78;;
74715;SDS011;63234;37.558;127.058;2023-09-12T06:04:53;7.90;;;5.05;;
74715;SDS011;63234;37.558;127.058;2023-09-12T06:07:19;13.00;;;5.93;;
74715;SDS011;63234;37.558;127.058;2023-09-12T06:09:45;10.13;;;5.47;;
74715;SDS011;63234;37.558;127.058;2023-09-12T06:12:10;9.15;;;4.93;;
74715;SDS011;63234;37.558;127.058;2023-09-12T06:14:36;10.75;;;5.47;;
74715;SDS011;63234;37.558;127.058;2023-09-12T06:17:02;9.30;;;5.57;;
74715;SDS011;63234;37.558;127.058;2023-09-12T06:19:28;9.85;;;5.63;;
74715;SDS011;63234;37.558;127.058;2023-09-12T06:21:54;9.02;;;5.90;;
74715;SDS011;63234;37.558;127.058;2023-09-12T06:24:21;10.25;;;5.25;;
74715;SDS011;63234;37.558;127.058;2023-09-12T06:26:48;9.13;;;5.50;;
74715;SDS011;63234;37.558;127.058;2023-09-12T06:29:14;10.75;;;6.47;;
74715;SDS011;63234;37.558;127.058;2023-09-12T06:31:40;9.18;;;5.28;;
74715;SDS011;63234;37.558;127.058;2023-09-12T06:34:07;10.65;;;5.68;;
74715;SDS011;63234;37.558;127.058;2023-09-12T06:36:33;10.40;;;6.07;;
74715;SDS011;63234;37.558;127.058;2023-09-12T06:38:59;12.75;;;5.93;;
74715;SDS011;63234;37.558;127.058;2023-09-12T06:41:26;9.15;;;5.03;;
74715;SDS011;63234;37.558;127.058;2023-09-12T06:43:52;8.23;;;5.90;;
74715;SDS011;63234;37.558;127.058;2023-09-12T06:46:19;13.02;;;5.93;;
74715;SDS011;63234;37.558;127.058;2023-09-12T06:48:45;8.75;;;5.68;;
74715;SDS011;63234;37.558;127.058;2023-09-12T06:51:11;12.98;;;5.20;;
74715;SDS011;63234;37.558;127.058;2023-09-12T06:53:38;9.63;;;6.10;;
74715;SDS011;63234;37.558;127.058;2023-09-12T06:56:04;10.75;;;6.20;;
74715;SDS011;63234;37.558;127.058;2023-09-12T06:58:31;8.45;;;5.18;;
74715;SDS011;63234;37.558;127.058;2023-09-12T07:01:04;8.32;;;5.88;;
74715;SDS011;63234;37.558;127.058;2023-09-12T07:03:33;10.43;;;5.53;;
74715;SDS011;63234;37.558;127.058;2023-09-12T07:06:00;8.68;;;5.55;;
74715;SDS011;63234;37.558;127.058;2023-09-12T07:08:29;8.77;;;5.75;;
74715;SDS011;63234;37.558;127.058;2023-09-12T07:10:55;9.75;;;5.50;;
74715;SDS011;63234;37.558;127.058;2023-09-12T07:13:23;9.18;;;5.63;;
74715;SDS011;63234;37.558;127.058;2023-09-12T07:15:52;9.48;;;6.00;;
74715;SDS011;63234;37.558;127.058;2023-09-12T07:18:18;9.30;;;5.30;;
74715;SDS011;63234;37.558;127.058;2023-09-12T07:20:45;7.68;;;4.90;;
74715;SDS011;63234;37.558;127.058;2023-09-12T07:23:11;10.32;;;6.13;;
74715;SDS011;63234;37.558;127.058;2023-09-12T07:25:41;9.63;;;5.93;;
74715;SDS011;63234;37.558;127.058;2023-09-12T07:28:10;14.50;;;5.90;;
74715;SDS011;63234;37.558;127.058;2023-09-12T07:30:36;9.98;;;5.32;;
74715;SDS011;63234;37.558;127.058;2023-09-12T07:33:03;9.68;;;5.60;;
74715;SDS011;63234;37.558;127.058;2023-09-12T07:35:29;18.55;;;6.35;;
74715;SDS011;63234;37.558;127.058;2023-09-12T07:37:56;9.52;;;6.30;;
74715;SDS011;63234;37.558;127.058;2023-09-12T07:40:22;10.60;;;5.53;;
74715;SDS011;63234;37.558;127.058;2023-09-12T07:42:48;9.35;;;5.88;;
74715;SDS011;63234;37.558;127.058;2023-09-12T07:45:14;9.68;;;5.82;;
74715;SDS011;63234;37.558;127.058;2023-09-12T07:47:40;9.02;;;5.30;;
74715;SDS011;63234;37.558;127.058;2023-09-12T07:50:05;10.00;;;5.32;;
74715;SDS011;63234;37.558;127.058;2023-09-12T07:52:32;9.52;;;5.90;;
74715;SDS011;63234;37.558;127.058;2023-09-12T07:55:04;9.02;;;5.63;;
74715;SDS011;63234;37.558;127.058;2023-09-12T07:57:30;11.35;;;5.95;;
74715;SDS011;63234;37.558;127.058;2023-09-12T07:59:56;9.55;;;6.05;;
74715;SDS011;63234;37.558;127.058;2023-09-12T08:02:22;8.75;;;5.70;;
74715;SDS011;63234;37.558;127.058;2023-09-12T08:04:48;8.65;;;5.50;;
74715;SDS011;63234;37.558;127.058;2023-09-12T08:07:16;8.57;;;5.65;;
74715;SDS011;63234;37.558;127.058;2023-09-12T08:09:55;8.50;;;5.30;;
74715;SDS011;63234;37.558;127.058;2023-09-12T08:12:26;6.20;;;4.88;;
74715;SDS011;63234;37.558;127.058;2023-09-12T08:14:53;7.55;;;5.13;;
74715;SDS011;63234;37.558;127.058;2023-09-12T08:17:19;9.73;;;5.32;;
74715;SDS011;63234;37.558;127.058;2023-09-12T08:19:45;8.65;;;5.63;;
74715;SDS011;63234;37.558;127.058;2023-09-12T08:22:11;12.25;;;5.70;;
74715;SDS011;63234;37.558;127.058;2023-09-12T08:24:38;9.45;;;5.95;;
74715;SDS011;63234;37.558;127.058;2023-09-12T08:27:04;10.32;;;6.03;;
74715;SDS011;63234;37.558;127.058;2023-09-12T08:29:31;10.95;;;5.95;;
74715;SDS011;63234;37.558;127.058;2023-09-12T08:31:58;8.63;;;5.78;;
74715;SDS011;63234;37.558;127.058;2023-09-12T08:34:25;8.73;;;5.65;;
74715;SDS011;63234;37.558;127.058;2023-09-12T08:36:50;10.15;;;6.35;;
74715;SDS011;63234;37.558;127.058;2023-09-12T08:39:23;10.43;;;6.00;;
74715;SDS011;63234;37.558;127.058;2023-09-12T08:41:50;8.55;;;5.60;;
74715;SDS011;63234;37.558;127.058;2023-09-12T08:44:17;10.93;;;6.15;;
74715;SDS011;63234;37.558;127.058;2023-09-12T08:46:43;9.18;;;5.88;;
74715;SDS011;63234;37.558;127.058;2023-09-12T08:49:10;8.55;;;5.88;;
74715;SDS011;63234;37.558;127.058;2023-09-12T08:51:37;9.80;;;6.43;;
74715;SDS011;63234;37.558;127.058;2023-09-12T08:54:04;9.90;;;5.82;;
74715;SDS011;63234;37.558;127.058;2023-09-12T08:56:31;8.20;;;5.80;;
74715;SDS011;63234;37.558;127.058;2023-09-12T08:59:00;12.40;;;5.90;;
74715;SDS011;63234;37.558;127.058;2023-09-12T09:01:26;8.60;;;6.03;;
74715;SDS011;63234;37.558;127.058;2023-09-12T09:03:55;7.32;;;5.65;;
74715;SDS011;63234;37.558;127.058;2023-09-12T09:06:22;10.68;;;6.07;;
74715;SDS011;63234;37.558;127.058;2023-09-12T09:08:49;12.23;;;6.32;;
74715;SDS011;63234;37.558;127.058;2023-09-12T09:11:16;9.98;;;5.70;;
74715;SDS011;63234;37.558;127.058;2023-09-12T09:13:42;14.93;;;6.60;;
74715;SDS011;63234;37.558;127.058;2023-09-12T09:16:11;7.70;;;5.95;;
74715;SDS011;63234;37.558;127.058;2023-09-12T09:18:58;10.52;;;5.60;;
74715;SDS011;63234;37.558;127.058;2023-09-12T09:21:28;10.63;;;6.28;;
74715;SDS011;63234;37.558;127.058;2023-09-12T09:24:03;17.85;;;6.22;;
74715;SDS011;63234;37.558;127.058;2023-09-12T09:26:44;9.90;;;5.72;;
74715;SDS011;63234;37.558;127.058;2023-09-12T09:29:13;11.05;;;6.30;;
74715;SDS011;63234;37.558;127.058;2023-09-12T09:31:49;13.02;;;6.45;;
74715;SDS011;63234;37.558;127.058;2023-09-12T09:34:17;14.15;;;6.18;;
74715;SDS011;63234;37.558;127.058;2023-09-12T09:36:47;9.98;;;5.82;;
74715;SDS011;63234;37.558;127.058;2023-09-12T09:39:14;11.55;;;6.05;;
74715;SDS011;63234;37.558;127.058;2023-09-12T09:41:42;10.32;;;6.20;;
74715;SDS011;63234;37.558;127.058;2023-09-12T09:44:12;13.45;;;5.75;;
74715;SDS011;63234;37.558;127.058;2023-09-12T09:46:39;8.27;;;6.28;;
74715;SDS011;63234;37.558;127.058;2023-09-12T09:49:15;9.15;;;5.95;;
74715;SDS011;63234;37.558;127.058;2023-09-12T09:51:43;11.70;;;6.10;;
74715;SDS011;63234;37.558;127.058;2023-09-12T09:54:10;8.02;;;5.70;;
74715;SDS011;63234;37.558;127.058;2023-09-12T09:56:47;10.48;;;5.88;;
74715;SDS011;63234;37.558;127.058;2023-09-12T09:59:14;9.82;;;5.60;;
74715;SDS011;63234;37.558;127.058;2023-09-12T10:01:46;10.30;;;5.47;;
74715;SDS011;63234;37.558;127.058;2023-09-12T10:04:13;10.07;;;5.45;;
74715;SDS011;63234;37.558;127.058;2023-09-12T10:06:42;12.45;;;5.63;;
74715;SDS011;63234;37.558;127.058;2023-09-12T10:09:11;9.13;;;5.20;;
74715;SDS011;63234;37.558;127.058;2023-09-12T10:11:39;9.20;;;5.38;;
74715;SDS011;63234;37.558;127.058;2023-09-12T10:14:06;9.40;;;4.85;;
74715;SDS011;63234;37.558;127.058;2023-09-12T10:16:34;9.65;;;6.13;;
74715;SDS011;63234;37.558;127.058;2023-09-12T10:21:38;7.93;;;5.32;;
74715;SDS011;63234;37.558;127.058;2023-09-12T10:24:15;9.52;;;6.22;;
74715;SDS011;63234;37.558;127.058;2023-09-12T10:26:44;8.65;;;5.50;;
74715;SDS011;63234;37.558;127.058;2023-09-12T10:29:12;10.73;;;5.53;;
74715;SDS011;63234;37.558;127.058;2023-09-12T10:31:39;9.90;;;6.15;;
74715;SDS011;63234;37.558;127.058;2023-09-12T10:34:06;7.85;;;5.45;;
74715;SDS011;63234;37.558;127.058;2023-09-12T10:36:38;8.73;;;5.57;;
74715;SDS011;63234;37.558;127.058;2023-09-12T10:39:05;7.75;;;5.70;;
74715;SDS011;63234;37.558;127.058;2023-09-12T10:41:32;7.60;;;5.60;;
74715;SDS011;63234;37.558;127.058;2023-09-12T10:47:23;9.90;;;5.85;;
74715;SDS011;63234;37.558;127.058;2023-09-12T10:49:50;8.05;;;5.30;;
74715;SDS011;63234;37.558;127.058;2023-09-12T10:52:25;9.65;;;5.35;;
74715;SDS011;63234;37.558;127.058;2023-09-12T10:54:55;9.45;;;6.47;;
74715;SDS011;63234;37.558;127.058;2023-09-12T10:57:21;8.80;;;6.32;;
74715;SDS011;63234;37.558;127.058;2023-09-12T11:02:43;9.77;;;6.35;;
74715;SDS011;63234;37.558;127.058;2023-09-12T11:07:59;12.60;;;5.53;;
74715;SDS011;63234;37.558;127.058;2023-09-12T11:10:26;6.10;;;4.72;;
74715;SDS011;63234;37.558;127.058;2023-09-12T11:12:57;7.43;;;4.93;;
74715;SDS011;63234;37.558;127.058;2023-09-12T11:15:24;8.02;;;5.07;;
74715;SDS011;63234;37.558;127.058;2023-09-12T11:18:01;9.18;;;5.32;;
74715;SDS011;63234;37.558;127.058;2023-09-12T11:20:52;8.45;;;5.53;;
74715;SDS011;63234;37.558;127.058;2023-09-12T11:26:04;7.13;;;4.90;;
74715;SDS011;63234;37.558;127.058;2023-09-12T11:28:35;7.80;;;5.35;;
74715;SDS011;63234;37.558;127.058;2023-09-12T11:31:01;9.63;;;5.80;;
74715;SDS011;63234;37.558;127.058;2023-09-12T11:33:28;7.95;;;5.25;;
74715;SDS011;63234;37.558;127.058;2023-09-12T11:35:54;8.13;;;6.13;;
74715;SDS011;63234;37.558;127.058;2023-09-12T11:38:26;6.47;;;4.97;;
74715;SDS011;63234;37.558;127.058;2023-09-12T11:40:54;9.20;;;5.97;;
74715;SDS011;63234;37.558;127.058;2023-09-12T11:43:24;6.57;;;5.28;;
74715;SDS011;63234;37.558;127.058;2023-09-12T11:45:52;7.30;;;4.80;;
74715;SDS011;63234;37.558;127.058;2023-09-12T11:48:20;8.23;;;5.13;;
74715;SDS011;63234;37.558;127.058;2023-09-12T11:50:53;6.03;;;4.70;;
74715;SDS011;63234;37.558;127.058;2023-09-12T11:53:24;8.43;;;4.70;;
74715;SDS011;63234;37.558;127.058;2023-09-12T11:55:53;9.23;;;4.57;;
74715;SDS011;63234;37.558;127.058;2023-09-12T11:58:21;6.43;;;4.43;;
74715;SDS011;63234;37.558;127.058;2023-09-12T12:00:48;6.82;;;4.90;;
74715;SDS011;63234;37.558;127.058;2023-09-12T12:03:16;7.07;;;5.25;;
74715;SDS011;63234;37.558;127.058;2023-09-12T12:05:43;7.18;;;4.68;;
74715;SDS011;63234;37.558;127.058;2023-09-12T12:08:12;7.00;;;4.82;;
74715;SDS011;63234;37.558;127.058;2023-09-12T12:10:39;5.90;;;4.20;;
74715;SDS011;63234;37.558;127.058;2023-09-12T12:13:16;5.38;;;4.07;;
74715;SDS011;63234;37.558;127.058;2023-09-12T12:15:45;8.52;;;4.20;;
74715;SDS011;63234;37.558;127.058;2023-09-12T12:18:11;5.72;;;4.50;;
74715;SDS011;63234;37.558;127.058;2023-09-12T12:20:38;5.35;;;3.75;;
74715;SDS011;63234;37.558;127.058;2023-09-12T12:23:04;5.38;;;3.90;;
74715;SDS011;63234;37.558;127.058;2023-09-12T12:25:33;5.75;;;4.32;;
74715;SDS011;63234;37.558;127.058;2023-09-12T12:28:00;5.18;;;4.30;;
74715;SDS011;63234;37.558;127.058;2023-09-12T12:30:30;7.63;;;4.32;;
74715;SDS011;63234;37.558;127.058;2023-09-12T12:32:59;5.53;;;4.00;;
74715;SDS011;63234;37.558;127.058;2023-09-12T12:35:27;7.63;;;4.32;;
74715;SDS011;63234;37.558;127.058;2023-09-12T12:37:54;6.10;;;3.42;;
74715;SDS011;63234;37.558;127.058;2023-09-12T12:40:24;6.72;;;3.88;;
74715;SDS011;63234;37.558;127.058;2023-09-12T12:42:50;6.68;;;3.70;;
74715;SDS011;63234;37.558;127.058;2023-09-12T12:45:17;6.35;;;3.58;;
74715;SDS011;63234;37.558;127.058;2023-09-12T12:47:50;7.30;;;3.70;;
74715;SDS011;63234;37.558;127.058;2023-09-12T12:50:17;6.63;;;3.83;;
74715;SDS011;63234;37.558;127.058;2023-09-12T12:52:46;8.45;;;4.43;;
74715;SDS011;63234;37.558;127.058;2023-09-12T12:55:14;7.07;;;3.97;;
74715;SDS011;63234;37.558;127.058;2023-09-12T12:57:42;6.05;;;3.95;;
74715;SDS011;63234;37.558;127.058;2023-09-12T13:00:10;6.75;;;3.70;;
74715;SDS011;63234;37.558;127.058;2023-09-12T13:02:38;6.00;;;4.00;;
74715;SDS011;63234;37.558;127.058;2023-09-12T13:05:04;5.20;;;3.90;;
74715;SDS011;63234;37.558;127.058;2023-09-12T13:07:34;9.23;;;4.40;;
74715;SDS011;63234;37.558;127.058;2023-09-12T13:10:01;5.90;;;3.70;;
74715;SDS011;63234;37.558;127.058;2023-09-12T13:12:29;7.82;;;4.40;;
74715;SDS011;63234;37.558;127.058;2023-09-12T13:14:55;7.93;;;3.95;;
74715;SDS011;63234;37.558;127.058;2023-09-12T13:17:21;6.05;;;4.07;;
74715;SDS011;63234;37.558;127.058;2023-09-12T13:19:48;4.68;;;3.75;;
74715;SDS011;63234;37.558;127.058;2023-09-12T13:22:14;6.03;;;3.78;;
74715;SDS011;63234;37.558;127.058;2023-09-12T13:24:40;5.78;;;4.10;;
74715;SDS011;63234;37.558;127.058;2023-09-12T13:27:06;7.70;;;4.30;;
74715;SDS011;63234;37.558;127.058;2023-09-12T13:29:31;4.05;;;3.50;;
74715;SDS011;63234;37.558;127.058;2023-09-12T13:31:57;5.20;;;3.83;;
74715;SDS011;63234;37.558;127.058;2023-09-12T13:34:23;4.40;;;3.80;;
74715;SDS011;63234;37.558;127.058;2023-09-12T13:36:48;7.75;;;4.55;;
74715;SDS011;63234;37.558;127.058;2023-09-12T13:39:14;4.97;;;3.95;;
74715;SDS011;63234;37.558;127.058;2023-09-12T13:41:42;4.60;;;3.50;;
74715;SDS011;63234;37.558;127.058;2023-09-12T13:44:10;5.93;;;3.55;;
74715;SDS011;63234;37.558;127.058;2023-09-12T13:46:36;6.00;;;3.92;;
74715;SDS011;63234;37.558;127.058;2023-09-12T13:49:02;8.43;;;4.35;;
74715;SDS011;63234;37.558;127.058;2023-09-12T13:51:29;5.13;;;3.75;;
74715;SDS011;63234;37.558;127.058;2023-09-12T13:53:55;6.47;;;3.72;;
74715;SDS011;63234;37.558;127.058;2023-09-12T13:56:21;7.53;;;3.95;;
74715;SDS011;63234;37.558;127.058;2023-09-12T13:58:46;6.78;;;4.10;;
74715;SDS011;63234;37.558;127.058;2023-09-12T14:01:12;5.50;;;4.30;;
74715;SDS011;63234;37.558;127.058;2023-09-12T14:03:38;4.68;;;3.75;;
74715;SDS011;63234;37.558;127.058;2023-09-12T14:06:04;5.65;;;3.78;;
74715;SDS011;63234;37.558;127.058;2023-09-12T14:08:30;7.68;;;3.50;;
74715;SDS011;63234;37.558;127.058;2023-09-12T14:10:56;5.75;;;3.58;;
74715;SDS011;63234;37.558;127.058;2023-09-12T14:13:21;4.55;;;3.83;;
74715;SDS011;63234;37.558;127.058;2023-09-12T14:15:48;6.88;;;3.70;;
74715;SDS011;63234;37.558;127.058;2023-09-12T14:18:15;4.22;;;3.63;;
74715;SDS011;63234;37.558;127.058;2023-09-12T14:20:41;5.50;;;3.40;;
74715;SDS011;63234;37.558;127.058;2023-09-12T14:23:07;4.93;;;3.85;;
74715;SDS011;63234;37.558;127.058;2023-09-12T14:25:33;7.45;;;4.25;;
74715;SDS011;63234;37.558;127.058;2023-09-12T14:27:59;7.57;;;4.10;;
74715;SDS011;63234;37.558;127.058;2023-09-12T14:30:25;5.72;;;3.50;;
74715;SDS011;63234;37.558;127.058;2023-09-12T14:35:24;5.38;;;3.80;;
74715;SDS011;63234;37.558;127.058;2023-09-12T14:37:50;9.30;;;4.18;;
74715;SDS011;63234;37.558;127.058;2023-09-12T14:40:16;10.25;;;4.40;;
74715;SDS011;63234;37.558;127.058;2023-09-12T14:42:42;9.30;;;4.18;;